Time;durP1;ratioP1;P1;durP2;ratioP2;P2;SDS_P1;SDS_P2;PMS_P1;PMS_P2;Temp;Humidity;BMP_temperature;BMP_pressure;BME280_temperature;BME280_humidity;BME280_pressure;Samples;Min_cycle;Max_cycle;Signal;HPM_P1;HPM_P2
2023/12/10 00:00:45;;;;;;;11.00;7.07;;;;;;;2.93;98.75;99585.41;5044287;28;20218;-73
2023/12/10 00:03:12;;;;;;;10.83;6.90;;;;;;;2.90;98.86;99591.25;5047594;28;20285;-73
2023/12/10 00:05:39;;;;;;;12.00;6.63;;;;;;;2.89;99.84;99581.88;5045780;28;20612;-73
2023/12/10 00:08:06;;;;;;;9.67;6.87;;;;;;;2.88;99.56;99570.69;5045845;28;20694;-73
2023/12/10 00:10:32;;;;;;;9.57;7.20;;;;;;;2.87;100.00;99553.50;5042980;28;20559;-73
2023/12/10 00:12:57;;;;;;;12.60;7.47;;;;;;;2.86;100.00;99549.34;5045661;28;20238;-73
2023/12/10 00:15:24;;;;;;;9.43;6.27;;;;;;;2.86;100.00;99546.72;5046037;28;20199;-73
2023/12/10 00:17:50;;;;;;;9.63;6.50;;;;;;;2.85;100.00;99539.25;5052845;28;20214;-73
2023/12/10 00:20:16;;;;;;;10.23;6.57;;;;;;;2.83;100.00;99541.34;5046617;28;20543;-73
2023/12/10 00:22:46;;;;;;;9.30;6.50;;;;;;;2.82;100.00;99537.22;5048453;28;20199;-74
2023/12/10 00:25:12;;;;;;;12.27;7.33;;;;;;;2.82;100.00;99527.56;5045742;28;20201;-73
2023/12/10 00:27:39;;;;;;;10.87;7.10;;;;;;;2.81;100.00;99539.03;5044272;28;20243;-73
2023/12/10 00:30:07;;;;;;;11.73;7.27;;;;;;;2.79;100.00;99537.81;5047729;28;20248;-74
2023/12/10 00:32:33;;;;;;;11.37;7.20;;;;;;;2.78;100.00;99547.47;5047742;28;20211;-73
2023/12/10 00:35:00;;;;;;;10.77;6.13;;;;;;;2.77;100.00;99535.50;5046230;28;20195;-73
2023/12/10 00:37:26;;;;;;;10.60;7.00;;;;;;;2.77;100.00;99540.72;5046267;28;20217;-73
2023/12/10 00:39:55;;;;;;;13.03;6.87;;;;;;;2.77;100.00;99552.97;5045968;28;20196;-74
2023/12/10 00:42:21;;;;;;;10.07;6.90;;;;;;;2.75;100.00;99547.31;5048579;28;20202;-73
2023/12/10 00:44:48;;;;;;;9.80;6.40;;;;;;;2.73;100.00;99539.78;5047217;28;20199;-73
2023/12/10 00:47:14;;;;;;;10.23;6.77;;;;;;;2.72;100.00;99540.84;5049500;28;20219;-73
2023/12/10 00:49:40;;;;;;;10.30;6.73;;;;;;;2.72;100.00;99555.72;5047067;28;20314;-73
2023/12/10 00:52:07;;;;;;;11.50;6.57;;;;;;;2.72;100.00;99551.28;5039977;28;20212;-72
2023/12/10 00:54:33;;;;;;;10.57;6.43;;;;;;;2.72;100.00;99538.25;5045954;28;20204;-73
2023/12/10 00:57:01;;;;;;;9.23;6.13;;;;;;;2.72;100.00;99540.84;5040139;28;20196;-74
2023/12/10 00:59:27;;;;;;;9.83;6.57;;;;;;;2.73;100.00;99542.38;5041204;28;20195;-74
2023/12/10 01:01:53;;;;;;;9.80;6.50;;;;;;;2.72;100.00;99537.47;5042898;28;20202;-73
2023/12/10 01:04:20;;;;;;;10.60;6.43;;;;;;;2.72;100.00;99540.06;5042606;28;20406;-74
2023/12/10 01:06:47;;;;;;;8.90;6.30;;;;;;;2.72;100.00;99537.47;5045878;28;20289;-73
2023/12/10 01:09:15;;;;;;;9.97;6.30;;;;;;;2.72;100.00;99538.25;5039478;28;20218;-73
2023/12/10 01:11:41;;;;;;;9.67;6.73;;;;;;;2.72;100.00;99529.66;5045549;28;20652;-74
2023/12/10 01:14:09;;;;;;;11.53;6.90;;;;;;;2.72;100.00;99532.25;5039115;28;20196;-73
2023/12/10 01:16:35;;;;;;;9.63;6.63;;;;;;;2.72;100.00;99522.59;5048898;28;20237;-73
2023/12/10 01:19:01;;;;;;;10.90;6.30;;;;;;;2.71;100.00;99528.13;5047702;28;20218;-75
2023/12/10 01:21:28;;;;;;;9.20;6.57;;;;;;;2.70;100.00;99519.50;5039453;28;20540;-74
2023/12/10 01:23:55;;;;;;;9.73;6.73;;;;;;;2.71;100.00;99522.91;5043827;28;20207;-74
2023/12/10 01:26:21;;;;;;;11.53;7.03;;;;;;;2.71;100.00;99520.28;5046919;28;20545;-74
2023/12/10 01:28:48;;;;;;;10.13;6.57;;;;;;;2.70;100.00;99529.94;5047732;28;20219;-73
2023/12/10 01:31:16;;;;;;;10.53;6.30;;;;;;;2.70;100.00;99521.38;5050902;28;20214;-73
2023/12/10 01:33:42;;;;;;;11.23;6.77;;;;;;;2.70;100.00;99522.13;5046858;28;20195;-73
2023/12/10 01:36:09;;;;;;;8.97;5.97;;;;;;;2.71;100.00;99525.50;5047319;28;20204;-74
2023/12/10 01:38:36;;;;;;;11.53;6.60;;;;;;;2.69;100.00;99528.41;5050879;28;20235;-73
2023/12/10 01:41:02;;;;;;;11.53;6.63;;;;;;;2.70;100.00;99529.94;5078233;28;20196;-74
2023/12/10 01:43:29;;;;;;;11.13;6.77;;;;;;;2.70;100.00;99532.53;5041986;28;20825;-73
2023/12/10 01:45:55;;;;;;;8.63;6.23;;;;;;;2.70;100.00;99535.16;5047487;28;20689;-74
2023/12/10 01:48:24;;;;;;;11.00;6.37;;;;;;;2.71;100.00;99538.53;5046371;28;20223;-74
2023/12/10 01:50:53;;;;;;;11.43;7.67;;;;;;;2.70;100.00;99535.16;5045083;28;20582;-74
2023/12/10 01:53:19;;;;;;;11.53;6.87;;;;;;;2.70;100.00;99535.16;5046193;28;20614;-73
2023/12/10 01:55:46;;;;;;;10.50;6.77;;;;;;;2.69;100.00;99535.47;5046169;28;20203;-74
2023/12/10 01:58:13;;;;;;;10.77;6.90;;;;;;;2.71;100.00;99538.53;5048158;28;20608;-74
2023/12/10 02:00:39;;;;;;;10.97;7.37;;;;;;;2.70;100.00;99535.16;5045391;28;20670;-74
2023/12/10 02:03:06;;;;;;;10.60;7.00;;;;;;;2.71;100.00;99541.16;5044228;28;20191;-74
2023/12/10 02:05:34;;;;;;;11.20;6.80;;;;;;;2.70;100.00;99548.19;5046111;28;20582;-74
2023/12/10 02:08:00;;;;;;;9.47;6.60;;;;;;;2.70;100.00;99539.63;5044655;28;20555;-73
2023/12/10 02:10:27;;;;;;;8.87;6.30;;;;;;;2.69;100.00;99536.22;5047064;28;20566;-73
2023/12/10 02:12:55;;;;;;;11.77;6.80;;;;;;;2.69;100.00;99536.22;5045327;28;20219;-74
2023/12/10 02:15:22;;;;;;;10.67;7.07;;;;;;;2.69;100.00;99540.69;5066408;28;20218;-74
2023/12/10 02:17:50;;;;;;;11.13;7.00;;;;;;;2.68;100.00;99545.13;5050393;28;20220;-73
2023/12/10 02:20:18;;;;;;;11.43;7.17;;;;;;;2.67;100.00;99545.41;5048767;28;20192;-73
2023/12/10 02:22:56;;;;;;;10.97;7.37;;;;;;;2.67;100.00;99550.63;5046580;28;20205;-74
2023/12/10 02:25:29;;;;;;;10.83;7.00;;;;;;;2.66;100.00;99536.06;5040727;28;20610;-73
2023/12/10 02:27:56;;;;;;;10.87;6.40;;;;;;;2.65;100.00;99548.31;5043838;28;20222;-74
2023/12/10 02:30:22;;;;;;;10.07;6.93;;;;;;;2.63;100.00;99529.59;5051167;28;20206;-74
2023/12/10 02:32:49;;;;;;;10.90;6.40;;;;;;;2.65;100.00;99544.94;5047225;28;20654;-73
2023/12/10 02:35:15;;;;;;;10.10;6.37;;;;;;;2.63;100.00;99536.63;5048170;28;20278;-73
2023/12/10 02:37:41;;;;;;;10.07;6.73;;;;;;;2.62;100.00;99537.72;5044057;28;20228;-74
2023/12/10 02:40:09;;;;;;;9.90;5.90;;;;;;;2.61;100.00;99538.78;5051517;28;20190;-74
2023/12/10 02:42:37;;;;;;;11.67;6.30;;;;;;;2.59;100.00;99540.94;5048153;28;20199;-74
2023/12/10 02:45:04;;;;;;;10.37;6.17;;;;;;;2.58;100.00;99544.59;5048032;28;20449;-74
2023/12/10 02:47:30;;;;;;;7.67;5.20;;;;;;;2.57;100.00;99541.22;5045145;28;20222;-74
2023/12/10 02:49:56;;;;;;;9.70;6.00;;;;;;;2.54;100.00;99541.81;5040293;28;20771;-74
2023/12/10 02:52:23;;;;;;;9.37;5.77;;;;;;;2.55;100.00;99539.97;5045703;28;20212;-73
2023/12/10 02:54:49;;;;;;;9.00;5.70;;;;;;;2.54;100.00;99535.84;5042596;28;20251;-73
2023/12/10 02:57:15;;;;;;;8.50;6.03;;;;;;;2.53;100.00;99524.63;5044300;28;20617;-73
2023/12/10 02:59:42;;;;;;;10.03;5.70;;;;;;;2.53;100.00;99540.28;5045350;28;20191;-74
2023/12/10 03:02:09;;;;;;;8.33;5.60;;;;;;;2.52;100.00;99538.75;5046668;28;20385;-73
2023/12/10 03:04:35;;;;;;;11.07;5.43;;;;;;;2.52;100.00;99543.16;5044760;28;20206;-74
2023/12/10 03:07:01;;;;;;;8.03;5.37;;;;;;;2.52;100.00;99537.97;5046815;28;20207;-73
2023/12/10 03:09:28;;;;;;;9.13;5.93;;;;;;;2.51;100.00;99531.22;5045377;28;20241;-73
2023/12/10 03:11:54;;;;;;;10.60;6.13;;;;;;;2.50;100.00;99532.28;5048164;28;20574;-74
2023/12/10 03:14:20;;;;;;;9.10;5.83;;;;;;;2.49;100.00;99528.91;5049375;28;20191;-73
2023/12/10 03:16:48;;;;;;;8.27;5.77;;;;;;;2.50;100.00;99540.09;5048146;28;20210;-73
2023/12/10 03:19:14;;;;;;;7.00;5.40;;;;;;;2.49;100.00;99547.13;5045140;28;20196;-73
2023/12/10 03:21:41;;;;;;;7.93;5.97;;;;;;;2.49;100.00;99551.59;5043078;28;20201;-74
2023/12/10 03:24:07;;;;;;;8.97;5.63;;;;;;;2.49;100.00;99554.94;5040149;28;20200;-74
2023/12/10 03:26:33;;;;;;;9.10;5.63;;;;;;;2.50;100.00;99566.16;5046302;28;20204;-74
2023/12/10 03:29:00;;;;;;;8.73;5.43;;;;;;;2.49;100.00;99557.56;5045193;28;20653;-74
2023/12/10 03:31:26;;;;;;;8.83;5.47;;;;;;;2.50;100.00;99558.34;5048655;28;20199;-73
2023/12/10 03:33:54;;;;;;;8.60;5.50;;;;;;;2.51;100.00;99552.06;5047176;28;20581;-73
2023/12/10 03:36:20;;;;;;;7.20;5.23;;;;;;;2.50;100.00;99564.31;5044902;28;20210;-74
2023/12/10 03:38:47;;;;;;;10.37;5.60;;;;;;;2.50;100.00;99556.50;5045233;28;20215;-74
2023/12/10 03:41:13;;;;;;;6.80;5.03;;;;;;;2.50;100.00;99561.69;5044751;28;20928;-74
2023/12/10 03:43:40;;;;;;;6.73;5.00;;;;;;;2.52;100.00;99554.38;5044616;28;20585;-74
2023/12/10 03:46:06;;;;;;;7.07;4.87;;;;;;;2.53;100.00;99557.72;5047740;28;20195;-74
2023/12/10 03:48:33;;;;;;;6.53;4.87;;;;;;;2.53;100.00;99552.53;5047162;28;20228;-74
2023/12/10 03:51:00;;;;;;;7.27;4.60;;;;;;;2.54;100.00;99548.88;5045134;28;20781;-74
2023/12/10 03:53:27;;;;;;;7.07;4.63;;;;;;;2.54;100.00;99562.66;5045191;28;20208;-74
2023/12/10 03:55:53;;;;;;;6.53;4.30;;;;;;;2.54;100.00;99565.25;5040015;28;20207;-74
2023/12/10 03:58:19;;;;;;;8.07;4.60;;;;;;;2.55;100.00;99579.81;5042802;28;20230;-74
2023/12/10 04:00:46;;;;;;;6.20;4.50;;;;;;;2.56;100.00;99580.59;5049188;28;20663;-74
2023/12/10 04:03:12;;;;;;;7.23;5.13;;;;;;;2.57;100.00;99584.75;5043145;28;20195;-73
2023/12/10 04:05:39;;;;;;;6.10;4.37;;;;;;;2.58;100.00;99592.28;5046485;28;20387;-74
2023/12/10 04:08:06;;;;;;;10.73;4.40;;;;;;;2.59;100.00;99599.00;5043709;28;20215;-73
2023/12/10 04:10:33;;;;;;;5.40;4.20;;;;;;;2.61;100.00;99603.94;5047108;28;20201;-74
2023/12/10 04:12:59;;;;;;;6.40;4.37;;;;;;;2.62;100.00;99595.81;5040703;28;20211;-73
2023/12/10 04:15:26;;;;;;;7.07;4.30;;;;;;;2.63;100.00;99589.53;5038095;28;20196;-74
2023/12/10 04:17:53;;;;;;;6.40;4.20;;;;;;;2.65;100.00;99599.69;5040245;28;20297;-74
2023/12/10 04:20:19;;;;;;;5.93;4.30;;;;;;;2.65;100.00;99600.44;5046600;28;20210;-73
2023/12/10 04:22:45;;;;;;;5.60;3.97;;;;;;;2.67;100.00;99600.91;5043827;28;20287;-74
2023/12/10 04:25:13;;;;;;;6.77;4.27;;;;;;;2.68;100.00;99607.66;5041698;28;20214;-74
2023/12/10 04:27:40;;;;;;;5.57;4.03;;;;;;;2.71;100.00;99601.09;5045548;28;20227;-74
2023/12/10 04:30:07;;;;;;;6.50;3.90;;;;;;;2.72;100.00;99608.63;5047296;28;20610;-74
2023/12/10 04:32:34;;;;;;;6.10;3.67;;;;;;;2.75;100.00;99612.47;5042803;28;20571;-73
2023/12/10 04:35:00;;;;;;;4.67;3.30;;;;;;;2.77;100.00;99612.94;5042980;28;20191;-73
2023/12/10 04:37:26;;;;;;;5.13;3.70;;;;;;;2.79;100.00;99626.44;5045179;28;20219;-74
2023/12/10 04:39:53;;;;;;;5.13;3.73;;;;;;;2.82;100.00;99628.44;5040848;28;20203;-74
2023/12/10 04:42:21;;;;;;;6.07;3.90;;;;;;;2.85;100.00;99627.88;5043947;28;20199;-74
2023/12/10 04:44:47;;;;;;;5.80;3.90;;;;;;;2.85;100.00;99633.84;5040591;28;20658;-74
2023/12/10 04:47:14;;;;;;;4.80;3.30;;;;;;;2.87;100.00;99641.38;5042105;28;20219;-74
2023/12/10 04:49:40;;;;;;;3.47;3.07;;;;;;;2.90;100.00;99638.94;5038114;28;20210;-74
2023/12/10 04:52:07;;;;;;;5.13;3.50;;;;;;;2.91;100.00;99629.28;5042911;28;20613;-74
2023/12/10 04:54:33;;;;;;;5.20;3.60;;;;;;;2.93;100.00;99638.34;5048650;28;20215;-74
2023/12/10 04:57:00;;;;;;;5.20;3.53;;;;;;;2.97;100.00;99646.34;5043672;28;20732;-74
2023/12/10 04:59:27;;;;;;;5.90;3.53;;;;;;;2.98;100.00;99647.88;5045529;28;20200;-74
2023/12/10 05:01:54;;;;;;;5.87;4.00;;;;;;;3.01;100.00;99649.91;5047617;28;20207;-74
2023/12/10 05:04:20;;;;;;;4.20;3.17;;;;;;;3.02;100.00;99646.97;5044631;28;20647;-74
2023/12/10 05:06:47;;;;;;;5.30;3.53;;;;;;;3.05;100.00;99645.59;5049298;28;20222;-73
2023/12/10 05:09:14;;;;;;;6.67;3.30;;;;;;;3.08;100.00;99658.06;5047779;28;20207;-73
2023/12/10 05:11:40;;;;;;;4.57;3.30;;;;;;;3.09;100.00;99657.78;5044551;28;20200;-73
2023/12/10 05:14:07;;;;;;;5.30;3.67;;;;;;;3.11;100.00;99655.63;5040973;28;20204;-74
2023/12/10 05:16:34;;;;;;;5.57;3.70;;;;;;;3.13;100.00;99661.31;5047022;28;20195;-74
2023/12/10 05:19:01;;;;;;;5.30;3.70;;;;;;;3.15;100.00;99669.63;5045834;28;20222;-74
2023/12/10 05:21:27;;;;;;;4.10;3.20;;;;;;;3.17;100.00;99666.72;5045446;28;20202;-74
2023/12/10 05:23:53;;;;;;;4.10;3.40;;;;;;;3.19;100.00;99677.59;5046762;28;20543;-74
2023/12/10 05:26:20;;;;;;;4.93;3.50;;;;;;;3.21;100.00;99678.09;5043986;28;20191;-74
2023/12/10 05:28:46;;;;;;;3.97;3.23;;;;;;;3.22;100.00;99674.41;5046470;28;20227;-73
2023/12/10 05:31:12;;;;;;;5.30;3.70;;;;;;;3.24;100.00;99690.53;5045879;28;20198;-73
2023/12/10 05:33:40;;;;;;;5.03;3.50;;;;;;;3.25;100.00;99692.06;5046084;28;20317;-74
2023/12/10 05:36:08;;;;;;;6.40;3.60;;;;;;;3.27;100.00;99682.13;5040470;28;20195;-74
2023/12/10 05:38:34;;;;;;;4.27;3.27;;;;;;;3.28;100.00;99686.25;5042474;28;20214;-74
2023/12/10 05:41:00;;;;;;;4.97;3.70;;;;;;;3.30;100.00;99702.38;5039497;28;20818;-74
2023/12/10 05:43:26;;;;;;;6.40;4.00;;;;;;;3.31;100.00;99701.31;5045179;28;20202;-74
2023/12/10 05:45:53;;;;;;;6.53;4.17;;;;;;;3.32;100.00;99692.44;5045303;28;20199;-74
2023/12/10 05:48:20;;;;;;;5.43;3.63;;;;;;;3.32;100.00;99695.78;5043301;28;20220;-73
2023/12/10 05:50:48;;;;;;;6.77;3.70;;;;;;;3.34;100.00;99709.31;5044220;28;20586;-74
2023/12/10 05:53:14;;;;;;;5.97;3.60;;;;;;;3.36;100.00;99711.63;5042791;28;20207;-74
2023/12/10 05:55:41;;;;;;;6.87;4.37;;;;;;;3.37;100.00;99713.19;5049948;28;20210;-74
2023/12/10 05:58:07;;;;;;;5.63;4.10;;;;;;;3.38;100.00;99714.72;5039806;28;20224;-74
2023/12/10 06:00:33;;;;;;;5.20;4.20;;;;;;;3.39;100.00;99722.25;5047032;28;20203;-74
2023/12/10 06:03:00;;;;;;;5.33;3.60;;;;;;;3.41;100.00;99717.50;5041712;28;20287;-74
2023/12/10 06:05:26;;;;;;;4.63;3.23;;;;;;;3.42;100.00;99718.28;5079739;28;20597;-74
2023/12/10 06:07:54;;;;;;;5.07;3.50;;;;;;;3.43;100.00;99717.94;5048088;28;20248;-74
2023/12/10 06:10:21;;;;;;;4.07;3.13;;;;;;;3.45;100.00;99726.28;5041191;28;20200;-74
2023/12/10 06:12:47;;;;;;;4.37;3.43;;;;;;;3.46;100.00;99730.41;5045655;28;20204;-73
2023/12/10 06:15:14;;;;;;;4.87;3.70;;;;;;;3.48;100.00;99735.34;5046986;28;20210;-74
2023/12/10 06:17:40;;;;;;;4.33;3.40;;;;;;;3.48;100.00;99737.94;5045665;28;20261;-74
2023/12/10 06:20:09;;;;;;;4.23;3.30;;;;;;;3.51;100.00;99747.78;5040943;28;20199;-73
2023/12/10 06:22:35;;;;;;;5.97;3.57;;;;;;;3.53;100.00;99743.03;5042878;28;20207;-73
2023/12/10 06:25:03;;;;;;;6.20;4.30;;;;;;;3.54;100.00;99742.75;5041255;28;20198;-73
2023/12/10 06:27:30;;;;;;;7.70;3.90;;;;;;;3.57;100.00;99749.22;5045439;28;20298;-73
2023/12/10 06:29:56;;;;;;;8.33;4.03;;;;;;;3.57;100.00;99749.97;5044214;28;20441;-73
2023/12/10 06:32:23;;;;;;;4.20;3.27;;;;;;;3.61;100.00;99750.13;5042457;28;20221;-73
2023/12/10 06:34:49;;;;;;;4.90;3.00;;;;;;;3.63;100.00;99756.59;5040013;28;20944;-73
2023/12/10 06:37:15;;;;;;;5.97;2.90;;;;;;;3.65;100.00;99759.69;5044300;28;20216;-73
2023/12/10 06:39:42;;;;;;;5.33;3.23;;;;;;;3.67;100.00;99760.16;5042412;28;20211;-73
2023/12/10 06:42:09;;;;;;;5.03;3.10;;;;;;;3.70;100.00;99756.97;5045229;28;20277;-73
2023/12/10 06:44:36;;;;;;;4.00;3.10;;;;;;;3.71;100.00;99755.88;5038429;28;20206;-73
2023/12/10 06:47:02;;;;;;;4.17;2.93;;;;;;;3.75;100.00;99761.28;5037664;28;20196;-73
2023/12/10 06:49:29;;;;;;;6.77;3.27;;;;;;;3.75;100.00;99754.22;5043571;28;20210;-72
2023/12/10 06:51:55;;;;;;;4.60;3.20;;;;;;;3.78;100.00;99769.28;5042360;28;20200;-73
2023/12/10 06:54:22;;;;;;;6.37;2.67;;;;;;;3.78;100.00;99764.03;5052495;28;20295;-72
2023/12/10 06:56:48;;;;;;;4.30;2.97;;;;;;;3.81;100.00;99767.91;5039273;28;20233;-73
2023/12/10 06:59:16;;;;;;;8.53;2.70;;;;;;;3.84;100.00;99775.16;5042219;28;20219;-73
2023/12/10 07:01:42;;;;;;;4.80;2.70;;;;;;;3.86;100.00;99778.22;5044018;28;20266;-73
2023/12/10 07:04:09;;;;;;;3.87;2.77;;;;;;;3.88;100.00;99797.00;5043554;28;20203;-73
2023/12/10 07:06:35;;;;;;;4.10;2.90;;;;;;;3.89;100.00;99794.06;5043543;28;20208;-73
2023/12/10 07:09:02;;;;;;;5.73;3.47;;;;;;;3.90;100.00;99806.06;5043339;28;20227;-73
2023/12/10 07:11:28;;;;;;;5.20;3.60;;;;;;;3.91;100.00;99804.19;5041169;28;20205;-73
2023/12/10 07:13:55;;;;;;;3.90;2.87;;;;;;;3.92;100.00;99813.56;5043524;28;20349;-73
2023/12/10 07:16:22;;;;;;;4.77;3.30;;;;;;;3.94;100.00;99808.84;5043135;28;20203;-73
2023/12/10 07:18:49;;;;;;;7.57;4.27;;;;;;;3.95;100.00;99813.00;5041586;28;20216;-72
2023/12/10 07:21:15;;;;;;;7.90;5.80;;;;;;;3.96;100.00;99814.53;5047587;28;20203;-73
2023/12/10 07:23:41;;;;;;;6.17;5.03;;;;;;;3.99;100.00;99819.91;5039410;28;20295;-72
2023/12/10 07:26:08;;;;;;;9.23;4.23;;;;;;;4.01;100.00;99825.63;5041747;28;20562;-73
2023/12/10 07:28:34;;;;;;;9.90;4.43;;;;;;;4.05;100.00;99820.56;5041877;28;20358;-71
2023/12/10 07:31:01;;;;;;;12.10;4.63;;;;;;;4.08;100.00;99827.78;5039733;28;20203;-73
2023/12/10 07:33:28;;;;;;;22.50;8.67;;;;;;;4.09;100.00;99832.72;5072283;28;20200;-73
2023/12/10 07:35:57;;;;;;;23.50;11.00;;;;;;;4.11;100.00;99833.22;5041037;28;20196;-73
2023/12/10 07:38:23;;;;;;;16.40;7.80;;;;;;;4.14;100.00;99835.19;5039427;28;20239;-73
2023/12/10 07:40:49;;;;;;;20.63;9.17;;;;;;;4.16;100.00;99838.31;5041727;28;20207;-73
2023/12/10 07:43:16;;;;;;;13.37;6.30;;;;;;;4.18;100.00;99841.38;5044264;28;20221;-74
2023/12/10 07:45:42;;;;;;;17.37;7.43;;;;;;;4.19;100.00;99842.16;5040180;28;20198;-73
2023/12/10 07:48:08;;;;;;;15.60;6.23;;;;;;;4.20;100.00;99838.47;5044271;28;20227;-73
2023/12/10 07:50:36;;;;;;;22.83;7.33;;;;;;;4.20;100.00;99843.69;5038784;28;20208;-73
2023/12/10 07:53:02;;;;;;;15.23;5.97;;;;;;;4.21;100.00;99840.00;5040989;28;20810;-73
2023/12/10 07:55:29;;;;;;;25.73;7.53;;;;;;;4.21;100.00;99845.22;5042198;28;20252;-73
2023/12/10 07:57:55;;;;;;;27.73;8.30;;;;;;;4.21;100.00;99840.78;5043584;28;20618;-73
2023/12/10 08:00:22;;;;;;;16.13;5.40;;;;;;;4.22;100.00;99846.75;5043214;28;20683;-73
2023/12/10 08:02:48;;;;;;;15.50;5.87;;;;;;;4.24;100.00;99845.38;5044793;28;20203;-74
2023/12/10 08:05:15;;;;;;;6.13;3.20;;;;;;;4.26;100.00;99845.84;5044440;28;20676;-73
2023/12/10 08:07:42;;;;;;;11.63;2.23;;;;;;;4.31;100.00;99863.25;5043441;28;20302;-73
2023/12/10 08:10:10;;;;;;;11.50;2.60;;;;;;;4.35;100.00;99866.81;5041588;28;20209;-73
2023/12/10 08:12:36;;;;;;;8.77;2.37;;;;;;;4.41;100.00;99871.59;5042016;28;20946;-73
2023/12/10 08:15:02;;;;;;;16.27;2.77;;;;;;;4.45;100.00;99882.25;5042880;28;20218;-73
2023/12/10 08:17:29;;;;;;;11.17;2.57;;;;;;;4.48;100.00;99876.38;5043354;28;20227;-73
2023/12/10 08:19:55;;;;;;;17.47;2.43;;;;;;;4.52;100.00;99880.69;5039272;28;20205;-73
2023/12/10 08:22:22;;;;;;;10.70;2.83;;;;;;;4.60;100.00;99893.03;5069210;28;20222;-73
2023/12/10 08:24:49;;;;;;;10.30;2.33;;;;;;;4.66;100.00;99889.22;5042497;28;20199;-74
2023/12/10 08:27:16;;;;;;;7.87;2.53;;;;;;;4.73;100.00;99892.19;5043167;28;20222;-73
2023/12/10 08:29:42;;;;;;;14.67;3.20;;;;;;;4.76;100.00;99902.03;5054849;28;20212;-73
2023/12/10 08:32:08;;;;;;;10.33;3.10;;;;;;;4.82;100.00;99903.41;5043039;28;20203;-73
2023/12/10 08:34:35;;;;;;;10.50;3.83;;;;;;;4.88;100.00;99909.28;5041682;28;20222;-73
2023/12/10 08:37:01;;;;;;;10.03;3.23;;;;;;;4.97;100.00;99910.84;5042451;28;20210;-73
2023/12/10 08:39:27;;;;;;;14.20;3.20;;;;;;;5.04;100.00;99921.66;5042018;28;20199;-75
2023/12/10 08:41:55;;;;;;;14.43;4.10;;;;;;;5.09;100.00;99903.19;5035971;28;20566;-75
2023/12/10 08:44:21;;;;;;;19.47;4.00;;;;;;;5.15;100.00;99907.22;5041205;28;20195;-76
2023/12/10 08:46:48;;;;;;;16.80;4.47;;;;;;;5.23;100.00;99918.78;5039301;28;20232;-73
2023/12/10 08:49:14;;;;;;;38.50;10.83;;;;;;;5.28;100.00;99916.75;5036486;28;20210;-73
2023/12/10 08:51:40;;;;;;;34.00;12.93;;;;;;;5.32;100.00;99922.94;5038760;28;20203;-73
2023/12/10 08:54:07;;;;;;;19.33;6.77;;;;;;;5.37;100.00;99914.16;5041900;28;20207;-73
2023/12/10 08:56:33;;;;;;;17.23;4.80;;;;;;;5.41;100.00;99923.72;5039576;28;20200;-72
2023/12/10 08:59:01;;;;;;;22.37;6.37;;;;;;;5.45;100.00;99913.41;5036316;28;20215;-73
2023/12/10 09:01:27;;;;;;;22.70;4.87;;;;;;;5.48;100.00;99920.63;5036533;28;20222;-73
2023/12/10 09:03:53;;;;;;;15.53;4.17;;;;;;;5.50;100.00;99916.63;5036367;28;20223;-73
2023/12/10 09:06:20;;;;;;;15.23;3.70;;;;;;;5.53;100.00;99921.25;5037332;28;20200;-73
2023/12/10 09:08:46;;;;;;;9.67;3.57;;;;;;;5.55;100.00;99926.19;5039657;28;20248;-74
2023/12/10 09:11:13;;;;;;;9.20;2.97;;;;;;;5.56;100.00;99925.88;5040375;28;20269;-73
2023/12/10 09:13:39;;;;;;;16.97;3.23;;;;;;;5.61;100.00;99930.19;5043079;28;20217;-73
2023/12/10 09:16:08;;;;;;;13.07;3.47;;;;;;;5.66;100.00;99940.53;5040796;28;20234;-73
2023/12/10 09:18:34;;;;;;;15.57;3.57;;;;;;;5.70;100.00;99938.84;5045757;28;20657;-73
2023/12/10 09:21:01;;;;;;;14.03;4.47;;;;;;;5.74;100.00;99937.13;5039760;28;20199;-73
2023/12/10 09:23:27;;;;;;;17.47;3.83;;;;;;;5.79;100.00;99942.97;5036106;28;20204;-73
2023/12/10 09:25:53;;;;;;;23.97;5.47;;;;;;;5.85;100.00;99933.16;5043250;28;20199;-73
2023/12/10 09:28:20;;;;;;;15.73;4.87;;;;;;;5.90;100.00;99948.72;5037639;28;20753;-73
2023/12/10 09:30:46;;;;;;;11.43;3.20;;;;;;;5.94;100.00;99947.00;5044514;28;20198;-73
2023/12/10 09:33:14;;;;;;;23.27;3.97;;;;;;;6.01;100.00;99945.47;5042711;28;20200;-73
2023/12/10 09:35:40;;;;;;;24.77;4.43;;;;;;;6.05;100.00;99943.75;5041864;28;20294;-73
2023/12/10 09:38:06;;;;;;;14.73;3.97;;;;;;;6.11;100.00;99941.75;5040431;28;20222;-74
2023/12/10 09:40:33;;;;;;;9.60;4.33;;;;;;;6.14;100.00;99941.91;5041906;28;20196;-73
2023/12/10 09:43:01;;;;;;;24.73;5.53;;;;;;;6.20;100.00;99945.91;5037310;28;20545;-73
2023/12/10 09:45:27;;;;;;;17.57;5.60;;;;;;;6.27;100.00;99953.28;5037886;28;20250;-74
2023/12/10 09:47:54;;;;;;;20.20;5.60;;;;;;;6.32;100.00;99955.75;5047372;28;20219;-72
2023/12/10 09:50:23;;;;;;;15.37;4.07;;;;;;;6.36;100.00;99951.41;5041374;28;20184;-73
2023/12/10 09:52:50;;;;;;;17.57;5.30;;;;;;;6.41;100.00;99953.88;5045075;28;20200;-72
2023/12/10 09:55:16;;;;;;;18.17;4.40;;;;;;;6.48;100.00;99954.91;5043145;28;20235;-73
2023/12/10 09:57:43;;;;;;;17.97;3.60;;;;;;;6.54;100.00;99947.66;5042048;28;20298;-72
2023/12/10 10:00:11;;;;;;;18.90;4.10;;;;;;;6.60;100.00;99949.03;5046304;28;20197;-73
2023/12/10 10:02:37;;;;;;;23.33;4.30;;;;;;;6.66;100.00;99947.78;5045852;28;20214;-73
2023/12/10 10:05:07;;;;;;;16.03;3.50;;;;;;;6.73;100.00;99951.44;5045577;28;20207;-74
2023/12/10 10:07:36;;;;;;;18.53;3.90;;;;;;;6.81;100.00;99958.53;5047751;28;20232;-72
2023/12/10 10:10:05;;;;;;;14.93;3.93;;;;;;;6.86;100.00;99950.50;5041773;28;20209;-74
2023/12/10 10:12:33;;;;;;;13.77;3.47;;;;;;;6.94;100.00;99957.53;5043375;28;20206;-73
2023/12/10 10:15:00;;;;;;;19.27;3.43;;;;;;;7.02;100.00;99961.22;5041238;28;20595;-73
2023/12/10 10:17:28;;;;;;;14.17;3.73;;;;;;;7.08;100.00;99962.56;5047319;28;20224;-73
2023/12/10 10:19:54;;;;;;;10.97;3.73;;;;;;;7.12;100.00;99964.25;5053851;28;20257;-73
2023/12/10 10:22:21;;;;;;;19.10;3.20;;;;;;;7.16;100.00;99959.91;5049006;28;20205;-73
2023/12/10 10:24:49;;;;;;;14.40;2.93;;;;;;;7.22;100.00;99952.63;5049622;28;20189;-73
2023/12/10 10:27:15;;;;;;;23.00;3.07;;;;;;;7.26;100.00;99954.28;5047136;28;20240;-73
2023/12/10 10:29:42;;;;;;;16.20;3.60;;;;;;;7.29;100.00;99958.91;5048960;28;20266;-73
2023/12/10 10:32:14;;;;;;;17.97;3.40;;;;;;;7.36;100.00;99953.91;5048662;28;20198;-73
2023/12/10 10:34:41;;;;;;;23.27;4.13;;;;;;;7.43;100.00;99961.28;5045896;28;21015;-74
2023/12/10 10:37:08;;;;;;;16.50;3.03;;;;;;;7.45;100.00;99974.88;5046119;28;20722;-73
2023/12/10 10:39:34;;;;;;;8.30;2.97;;;;;;;7.48;100.00;99969.75;5045499;28;20214;-74
2023/12/10 10:42:04;;;;;;;10.10;2.40;;;;;;;7.51;100.00;99968.34;5048900;28;20196;-73
2023/12/10 10:44:31;;;;;;;11.40;2.83;;;;;;;7.55;100.00;99962.13;5047434;28;20192;-73
2023/12/10 10:46:58;;;;;;;10.57;2.83;;;;;;;7.58;100.00;99973.84;5044917;28;20201;-73
2023/12/10 10:49:26;;;;;;;10.70;2.87;;;;;;;7.58;100.00;99982.53;5043849;28;20564;-73
2023/12/10 10:51:53;;;;;;;15.80;2.53;;;;;;;7.57;100.00;99982.84;5049980;28;20197;-72
2023/12/10 10:54:19;;;;;;;10.73;2.70;;;;;;;7.57;100.00;99980.97;5052928;28;20202;-73
2023/12/10 10:56:46;;;;;;;14.70;2.30;;;;;;;7.56;100.00;99984.69;5045719;28;20192;-73
2023/12/10 11:02:06;;;;;;;9.33;2.20;;;;;;;7.52;100.00;99977.78;5078088;27;1157414;-69
2023/12/10 11:04:35;;;;;;;10.33;2.20;;;;;;;7.51;100.00;99976.22;5106136;28;20203;-70
2023/12/10 11:07:03;;;;;;;17.13;2.93;;;;;;;7.49;100.00;99979.16;5096812;28;20222;-70
2023/12/10 11:09:30;;;;;;;12.77;2.30;;;;;;;7.47;100.00;99978.72;5089846;28;20230;-71
2023/12/10 11:11:57;;;;;;;13.13;2.10;;;;;;;7.48;100.00;99987.38;5095971;28;20217;-71
2023/12/10 11:16:58;;;;;;;16.30;2.37;;;;;;;7.46;100.00;99984.31;5010977;28;20212;-72
2023/12/10 11:19:28;;;;;;;8.47;2.33;;;;;;;7.48;100.00;99982.91;5014637;28;21459;-72
2023/12/10 11:21:55;;;;;;;7.87;1.90;;;;;;;7.48;100.00;99982.13;5016814;28;20224;-71
2023/12/10 11:24:21;;;;;;;13.17;2.20;;;;;;;7.48;100.00;99988.16;5013422;28;20219;-72
2023/12/10 11:26:47;;;;;;;8.20;1.53;;;;;;;7.48;100.00;99985.53;5011390;28;20205;-72
2023/12/10 11:29:14;;;;;;;11.73;2.30;;;;;;;7.50;100.00;99991.22;5009315;28;20209;-72
2023/12/10 11:31:42;;;;;;;11.80;3.73;;;;;;;7.48;100.00;99982.13;5013152;28;20198;-71